sensor_id;sensor_type;location;lat;lon;timestamp;P1;durP1;ratioP1;P2;durP2;ratioP2
34489;SDS011;20730;49.372;7.324;2022-09-09T00:02:21;6.82;;;1.17;;
34489;SDS011;20730;49.372;7.324;2022-09-09T00:07:39;3.65;;;0.80;;
34489;SDS011;20730;49.372;7.324;2022-09-09T00:13:02;2.25;;;1.00;;
34489;SDS011;20730;49.372;7.324;2022-09-09T00:15:38;1.75;;;0.70;;
34489;SDS011;20730;49.372;7.324;2022-09-09T00:21:03;1.33;;;0.82;;
34489;SDS011;20730;49.372;7.324;2022-09-09T00:23:35;5.88;;;1.00;;
34489;SDS011;20730;49.372;7.324;2022-09-09T00:26:10;4.40;;;0.90;;
34489;SDS011;20730;49.372;7.324;2022-09-09T00:29:22;2.85;;;0.68;;
34489;SDS011;20730;49.372;7.324;2022-09-09T00:32:12;3.08;;;1.00;;
34489;SDS011;20730;49.372;7.324;2022-09-09T00:34:44;6.05;;;0.75;;
34489;SDS011;20730;49.372;7.324;2022-09-09T00:37:22;2.40;;;0.73;;
34489;SDS011;20730;49.372;7.324;2022-09-09T00:39:51;1.98;;;0.82;;
34489;SDS011;20730;49.372;7.324;2022-09-09T00:45:02;1.15;;;0.80;;
34489;SDS011;20730;49.372;7.324;2022-09-09T00:47:46;3.33;;;0.68;;
34489;SDS011;20730;49.372;7.324;2022-09-09T00:53:11;6.85;;;0.90;;
34489;SDS011;20730;49.372;7.324;2022-09-09T00:58:37;4.68;;;0.90;;
34489;SDS011;20730;49.372;7.324;2022-09-09T01:01:08;3.10;;;0.80;;
34489;SDS011;20730;49.372;7.324;2022-09-09T01:06:20;3.75;;;0.90;;
34489;SDS011;20730;49.372;7.324;2022-09-09T01:17:26;4.57;;;0.80;;
34489;SDS011;20730;49.372;7.324;2022-09-09T01:20:05;1.88;;;0.90;;
34489;SDS011;20730;49.372;7.324;2022-09-09T01:23:10;4.22;;;0.88;;
34489;SDS011;20730;49.372;7.324;2022-09-09T01:29:06;2.53;;;0.73;;
34489;SDS011;20730;49.372;7.324;2022-09-09T01:31:51;4.10;;;0.90;;
34489;SDS011;20730;49.372;7.324;2022-09-09T01:34:45;3.28;;;0.90;;
34489;SDS011;20730;49.372;7.324;2022-09-09T01:37:15;5.22;;;1.10;;
34489;SDS011;20730;49.372;7.324;2022-09-09T01:42:18;3.08;;;0.77;;
34489;SDS011;20730;49.372;7.324;2022-09-09T01:44:48;2.90;;;0.90;;
34489;SDS011;20730;49.372;7.324;2022-09-09T01:47:15;3.65;;;0.80;;
34489;SDS011;20730;49.372;7.324;2022-09-09T01:49:57;4.13;;;1.08;;
34489;SDS011;20730;49.372;7.324;2022-09-09T01:52:26;4.47;;;1.13;;
34489;SDS011;20730;49.372;7.324;2022-09-09T01:54:54;2.85;;;1.35;;
34489;SDS011;20730;49.372;7.324;2022-09-09T01:57:28;2.63;;;0.93;;
34489;SDS011;20730;49.372;7.324;2022-09-09T02:00:06;2.45;;;0.90;;
34489;SDS011;20730;49.372;7.324;2022-09-09T02:05:27;4.10;;;0.90;;
34489;SDS011;20730;49.372;7.324;2022-09-09T02:13:29;3.17;;;0.83;;
34489;SDS011;20730;49.372;7.324;2022-09-09T02:18:29;2.10;;;0.90;;
34489;SDS011;20730;49.372;7.324;2022-09-09T02:20:59;7.97;;;1.05;;
34489;SDS011;20730;49.372;7.324;2022-09-09T02:23:26;3.00;;;0.85;;
34489;SDS011;20730;49.372;7.324;2022-09-09T02:25:55;3.05;;;0.98;;
34489;SDS011;20730;49.372;7.324;2022-09-09T02:28:25;4.35;;;0.95;;
34489;SDS011;20730;49.372;7.324;2022-09-09T02:30:53;2.72;;;0.85;;
34489;SDS011;20730;49.372;7.324;2022-09-09T02:33:28;2.75;;;0.80;;
34489;SDS011;20730;49.372;7.324;2022-09-09T02:36:00;2.65;;;0.70;;
34489;SDS011;20730;49.372;7.324;2022-09-09T02:38:32;3.72;;;1.00;;
34489;SDS011;20730;49.372;7.324;2022-09-09T02:41:08;2.72;;;0.90;;
34489;SDS011;20730;49.372;7.324;2022-09-09T02:43:35;3.13;;;1.27;;
34489;SDS011;20730;49.372;7.324;2022-09-09T02:49:08;5.07;;;1.08;;
34489;SDS011;20730;49.372;7.324;2022-09-09T02:54:14;3.00;;;0.50;;
34489;SDS011;20730;49.372;7.324;2022-09-09T02:56:54;6.85;;;0.70;;
34489;SDS011;20730;49.372;7.324;2022-09-09T02:59:30;6.28;;;0.95;;
34489;SDS011;20730;49.372;7.324;2022-09-09T03:01:57;5.50;;;1.23;;
34489;SDS011;20730;49.372;7.324;2022-09-09T03:04:24;4.32;;;0.77;;
34489;SDS011;20730;49.372;7.324;2022-09-09T03:06:51;5.68;;;0.90;;
34489;SDS011;20730;49.372;7.324;2022-09-09T03:09:19;1.25;;;0.50;;
34489;SDS011;20730;49.372;7.324;2022-09-09T03:11:48;4.82;;;0.65;;
34489;SDS011;20730;49.372;7.324;2022-09-09T03:14:16;3.15;;;0.80;;
34489;SDS011;20730;49.372;7.324;2022-09-09T03:16:47;2.60;;;0.60;;
34489;SDS011;20730;49.372;7.324;2022-09-09T03:19:14;4.15;;;0.68;;
34489;SDS011;20730;49.372;7.324;2022-09-09T03:21:41;2.15;;;0.70;;
34489;SDS011;20730;49.372;7.324;2022-09-09T03:24:08;3.30;;;0.88;;
34489;SDS011;20730;49.372;7.324;2022-09-09T03:26:36;2.90;;;0.75;;
34489;SDS011;20730;49.372;7.324;2022-09-09T03:29:07;3.97;;;0.90;;
34489;SDS011;20730;49.372;7.324;2022-09-09T03:31:34;3.38;;;1.13;;
34489;SDS011;20730;49.372;7.324;2022-09-09T03:34:02;5.18;;;0.95;;
34489;SDS011;20730;49.372;7.324;2022-09-09T03:36:32;3.00;;;0.80;;
34489;SDS011;20730;49.372;7.324;2022-09-09T03:38:59;2.50;;;0.65;;
34489;SDS011;20730;49.372;7.324;2022-09-09T03:41:29;6.53;;;1.60;;
34489;SDS011;20730;49.372;7.324;2022-09-09T03:43:58;3.15;;;0.60;;
34489;SDS011;20730;49.372;7.324;2022-09-09T03:46:27;7.53;;;0.70;;
34489;SDS011;20730;49.372;7.324;2022-09-09T03:48:54;2.28;;;0.60;;
34489;SDS011;20730;49.372;7.324;2022-09-09T03:51:21;4.72;;;0.95;;
34489;SDS011;20730;49.372;7.324;2022-09-09T03:53:48;5.68;;;0.90;;
34489;SDS011;20730;49.372;7.324;2022-09-09T03:56:15;1.50;;;0.80;;
34489;SDS011;20730;49.372;7.324;2022-09-09T03:58:42;2.85;;;0.70;;
34489;SDS011;20730;49.372;7.324;2022-09-09T04:01:11;4.10;;;0.95;;
34489;SDS011;20730;49.372;7.324;2022-09-09T04:03:44;2.45;;;0.70;;
34489;SDS011;20730;49.372;7.324;2022-09-09T04:06:12;4.45;;;0.70;;
34489;SDS011;20730;49.372;7.324;2022-09-09T04:08:44;2.63;;;0.60;;
34489;SDS011;20730;49.372;7.324;2022-09-09T04:11:12;2.50;;;0.68;;
34489;SDS011;20730;49.372;7.324;2022-09-09T04:13:39;5.20;;;0.70;;
34489;SDS011;20730;49.372;7.324;2022-09-09T04:16:09;3.17;;;0.75;;
34489;SDS011;20730;49.372;7.324;2022-09-09T04:18:37;8.40;;;0.93;;
34489;SDS011;20730;49.372;7.324;2022-09-09T04:21:06;3.60;;;0.60;;
34489;SDS011;20730;49.372;7.324;2022-09-09T04:23:34;4.72;;;0.80;;
34489;SDS011;20730;49.372;7.324;2022-09-09T04:26:03;4.70;;;0.90;;
34489;SDS011;20730;49.372;7.324;2022-09-09T04:28:32;4.10;;;0.90;;
34489;SDS011;20730;49.372;7.324;2022-09-09T04:31:10;3.17;;;0.82;;
34489;SDS011;20730;49.372;7.324;2022-09-09T04:33:42;6.20;;;1.10;;
34489;SDS011;20730;49.372;7.324;2022-09-09T04:36:09;4.07;;;0.60;;
34489;SDS011;20730;49.372;7.324;2022-09-09T04:38:36;4.40;;;0.80;;
34489;SDS011;20730;49.372;7.324;2022-09-09T04:41:04;2.28;;;0.80;;
34489;SDS011;20730;49.372;7.324;2022-09-09T04:43:33;6.10;;;0.93;;
34489;SDS011;20730;49.372;7.324;2022-09-09T04:46:02;3.53;;;0.80;;
34489;SDS011;20730;49.372;7.324;2022-09-09T04:48:30;4.15;;;0.90;;
34489;SDS011;20730;49.372;7.324;2022-09-09T04:50:59;7.50;;;1.05;;
34489;SDS011;20730;49.372;7.324;2022-09-09T04:53:29;2.92;;;0.50;;
34489;SDS011;20730;49.372;7.324;2022-09-09T04:56:07;3.35;;;0.80;;
34489;SDS011;20730;49.372;7.324;2022-09-09T04:58:41;5.95;;;0.90;;
34489;SDS011;20730;49.372;7.324;2022-09-09T05:01:17;4.70;;;0.80;;
34489;SDS011;20730;49.372;7.324;2022-09-09T05:03:47;4.93;;;0.68;;
34489;SDS011;20730;49.372;7.324;2022-09-09T05:06:20;2.92;;;0.80;;
34489;SDS011;20730;49.372;7.324;2022-09-09T05:08:52;3.00;;;0.90;;
34489;SDS011;20730;49.372;7.324;2022-09-09T05:11:26;3.20;;;0.75;;
34489;SDS011;20730;49.372;7.324;2022-09-09T05:14:04;5.32;;;1.05;;
34489;SDS011;20730;49.372;7.324;2022-09-09T05:16:31;3.42;;;0.95;;
34489;SDS011;20730;49.372;7.324;2022-09-09T05:18:58;6.95;;;1.05;;
34489;SDS011;20730;49.372;7.324;2022-09-09T05:21:33;10.55;;;1.33;;
34489;SDS011;20730;49.372;7.324;2022-09-09T05:24:00;7.00;;;1.10;;
34489;SDS011;20730;49.372;7.324;2022-09-09T05:26:27;5.82;;;1.27;;
34489;SDS011;20730;49.372;7.324;2022-09-09T05:28:56;6.82;;;1.45;;
34489;SDS011;20730;49.372;7.324;2022-09-09T05:31:23;6.07;;;1.13;;
34489;SDS011;20730;49.372;7.324;2022-09-09T05:33:54;2.63;;;1.10;;
34489;SDS011;20730;49.372;7.324;2022-09-09T05:36:21;4.88;;;1.38;;
34489;SDS011;20730;49.372;7.324;2022-09-09T05:38:52;2.13;;;1.27;;
34489;SDS011;20730;49.372;7.324;2022-09-09T05:41:20;7.32;;;1.40;;
34489;SDS011;20730;49.372;7.324;2022-09-09T05:43:51;5.32;;;1.50;;
34489;SDS011;20730;49.372;7.324;2022-09-09T05:46:20;5.25;;;1.40;;
34489;SDS011;20730;49.372;7.324;2022-09-09T05:48:50;1.70;;;1.20;;
34489;SDS011;20730;49.372;7.324;2022-09-09T05:51:21;4.10;;;1.20;;
34489;SDS011;20730;49.372;7.324;2022-09-09T05:53:50;3.28;;;1.17;;
34489;SDS011;20730;49.372;7.324;2022-09-09T05:58:46;2.22;;;1.15;;
34489;SDS011;20730;49.372;7.324;2022-09-09T06:01:18;8.80;;;1.50;;
34489;SDS011;20730;49.372;7.324;2022-09-09T06:03:49;3.67;;;1.02;;
34489;SDS011;20730;49.372;7.324;2022-09-09T06:06:30;5.57;;;1.25;;
34489;SDS011;20730;49.372;7.324;2022-09-09T06:09:06;6.05;;;1.25;;
34489;SDS011;20730;49.372;7.324;2022-09-09T06:11:37;5.60;;;1.45;;
34489;SDS011;20730;49.372;7.324;2022-09-09T06:14:05;3.35;;;1.17;;
34489;SDS011;20730;49.372;7.324;2022-09-09T06:16:32;7.15;;;1.25;;
34489;SDS011;20730;49.372;7.324;2022-09-09T06:19:00;4.43;;;1.17;;
34489;SDS011;20730;49.372;7.324;2022-09-09T06:21:37;3.40;;;1.40;;
34489;SDS011;20730;49.372;7.324;2022-09-09T06:24:07;3.67;;;1.45;;
34489;SDS011;20730;49.372;7.324;2022-09-09T06:26:35;3.00;;;1.20;;
34489;SDS011;20730;49.372;7.324;2022-09-09T06:29:11;4.82;;;1.50;;
34489;SDS011;20730;49.372;7.324;2022-09-09T06:31:40;7.97;;;1.67;;
34489;SDS011;20730;49.372;7.324;2022-09-09T06:34:19;6.28;;;1.48;;
34489;SDS011;20730;49.372;7.324;2022-09-09T06:39:15;6.70;;;1.70;;
34489;SDS011;20730;49.372;7.324;2022-09-09T06:41:44;5.53;;;1.40;;
34489;SDS011;20730;49.372;7.324;2022-09-09T06:44:33;4.38;;;1.30;;
34489;SDS011;20730;49.372;7.324;2022-09-09T06:47:02;5.18;;;1.85;;
34489;SDS011;20730;49.372;7.324;2022-09-09T06:49:30;7.80;;;1.50;;
34489;SDS011;20730;49.372;7.324;2022-09-09T06:51:57;8.30;;;1.83;;
34489;SDS011;20730;49.372;7.324;2022-09-09T06:54:24;6.47;;;1.80;;
34489;SDS011;20730;49.372;7.324;2022-09-09T06:56:52;4.88;;;1.40;;
34489;SDS011;20730;49.372;7.324;2022-09-09T06:59:22;9.45;;;1.63;;
34489;SDS011;20730;49.372;7.324;2022-09-09T07:01:51;6.85;;;1.38;;
34489;SDS011;20730;49.372;7.324;2022-09-09T07:04:22;7.80;;;1.90;;
34489;SDS011;20730;49.372;7.324;2022-09-09T07:06:49;5.40;;;1.58;;
34489;SDS011;20730;49.372;7.324;2022-09-09T07:09:20;3.38;;;1.33;;
34489;SDS011;20730;49.372;7.324;2022-09-09T07:11:50;2.95;;;1.05;;
34489;SDS011;20730;49.372;7.324;2022-09-09T07:14:22;5.35;;;1.30;;
34489;SDS011;20730;49.372;7.324;2022-09-09T07:16:56;6.00;;;1.40;;
34489;SDS011;20730;49.372;7.324;2022-09-09T07:19:28;6.15;;;1.30;;
34489;SDS011;20730;49.372;7.324;2022-09-09T07:21:55;7.60;;;2.50;;
34489;SDS011;20730;49.372;7.324;2022-09-09T07:24:24;8.55;;;1.55;;
34489;SDS011;20730;49.372;7.324;2022-09-09T07:26:51;7.53;;;1.42;;
34489;SDS011;20730;49.372;7.324;2022-09-09T07:29:18;4.85;;;1.30;;
34489;SDS011;20730;49.372;7.324;2022-09-09T07:31:47;7.53;;;1.30;;
34489;SDS011;20730;49.372;7.324;2022-09-09T07:34:19;5.57;;;1.30;;
34489;SDS011;20730;49.372;7.324;2022-09-09T07:36:46;4.72;;;1.17;;
34489;SDS011;20730;49.372;7.324;2022-09-09T07:39:13;4.85;;;1.38;;
34489;SDS011;20730;49.372;7.324;2022-09-09T07:41:46;6.55;;;1.17;;
34489;SDS011;20730;49.372;7.324;2022-09-09T07:44:18;4.20;;;1.55;;
34489;SDS011;20730;49.372;7.324;2022-09-09T07:46:52;6.82;;;1.60;;
34489;SDS011;20730;49.372;7.324;2022-09-09T07:49:24;5.88;;;1.30;;
34489;SDS011;20730;49.372;7.324;2022-09-09T07:51:59;3.90;;;1.42;;
34489;SDS011;20730;49.372;7.324;2022-09-09T07:54:26;8.80;;;1.60;;
34489;SDS011;20730;49.372;7.324;2022-09-09T07:56:53;5.60;;;1.30;;
34489;SDS011;20730;49.372;7.324;2022-09-09T07:59:22;6.10;;;1.60;;
34489;SDS011;20730;49.372;7.324;2022-09-09T08:01:52;6.57;;;1.63;;
34489;SDS011;20730;49.372;7.324;2022-09-09T08:04:26;4.47;;;1.48;;
34489;SDS011;20730;49.372;7.324;2022-09-09T08:06:58;6.47;;;1.50;;
34489;SDS011;20730;49.372;7.324;2022-09-09T08:09:27;9.35;;;1.70;;
34489;SDS011;20730;49.372;7.324;2022-09-09T08:12:21;6.22;;;1.58;;
34489;SDS011;20730;49.372;7.324;2022-09-09T08:14:50;11.57;;;1.83;;
34489;SDS011;20730;49.372;7.324;2022-09-09T08:17:21;4.43;;;1.20;;
34489;SDS011;20730;49.372;7.324;2022-09-09T08:19:47;5.32;;;1.63;;
34489;SDS011;20730;49.372;7.324;2022-09-09T08:22:19;4.82;;;1.45;;
34489;SDS011;20730;49.372;7.324;2022-09-09T08:24:46;6.72;;;1.58;;
34489;SDS011;20730;49.372;7.324;2022-09-09T08:27:13;4.63;;;1.40;;
34489;SDS011;20730;49.372;7.324;2022-09-09T08:29:40;2.17;;;1.40;;
34489;SDS011;20730;49.372;7.324;2022-09-09T08:32:07;7.93;;;1.67;;
34489;SDS011;20730;49.372;7.324;2022-09-09T08:34:36;6.70;;;1.83;;
34489;SDS011;20730;49.372;7.324;2022-09-09T08:37:10;4.85;;;1.98;;
34489;SDS011;20730;49.372;7.324;2022-09-09T08:39:39;4.65;;;1.50;;
34489;SDS011;20730;49.372;7.324;2022-09-09T08:47:35;6.47;;;1.58;;
34489;SDS011;20730;49.372;7.324;2022-09-09T08:50:27;11.27;;;1.70;;
34489;SDS011;20730;49.372;7.324;2022-09-09T08:53:01;6.18;;;1.70;;
34489;SDS011;20730;49.372;7.324;2022-09-09T08:58:09;7.35;;;1.33;;
34489;SDS011;20730;49.372;7.324;2022-09-09T09:01:09;4.78;;;0.98;;
34489;SDS011;20730;49.372;7.324;2022-09-09T09:09:18;4.68;;;1.17;;
34489;SDS011;20730;49.372;7.324;2022-09-09T09:11:51;4.03;;;1.52;;
34489;SDS011;20730;49.372;7.324;2022-09-09T09:14:34;5.18;;;1.30;;
34489;SDS011;20730;49.372;7.324;2022-09-09T09:17:06;8.43;;;1.60;;
34489;SDS011;20730;49.372;7.324;2022-09-09T09:19:38;4.93;;;1.20;;
34489;SDS011;20730;49.372;7.324;2022-09-09T09:24:59;4.05;;;1.05;;
34489;SDS011;20730;49.372;7.324;2022-09-09T09:27:36;6.93;;;1.10;;
34489;SDS011;20730;49.372;7.324;2022-09-09T09:30:29;6.80;;;1.10;;
34489;SDS011;20730;49.372;7.324;2022-09-09T09:35:53;3.53;;;0.98;;
34489;SDS011;20730;49.372;7.324;2022-09-09T09:38:22;3.28;;;1.17;;
34489;SDS011;20730;49.372;7.324;2022-09-09T09:41:11;7.95;;;1.02;;
34489;SDS011;20730;49.372;7.324;2022-09-09T09:43:39;6.45;;;1.50;;
34489;SDS011;20730;49.372;7.324;2022-09-09T09:46:21;2.72;;;0.70;;
34489;SDS011;20730;49.372;7.324;2022-09-09T09:49:24;6.90;;;1.23;;
34489;SDS011;20730;49.372;7.324;2022-09-09T09:51:44;8.70;;;1.10;;
34489;SDS011;20730;49.372;7.324;2022-09-09T09:54:22;6.13;;;0.93;;
34489;SDS011;20730;49.372;7.324;2022-09-09T09:57:07;4.45;;;1.02;;
34489;SDS011;20730;49.372;7.324;2022-09-09T09:59:39;5.72;;;1.00;;
34489;SDS011;20730;49.372;7.324;2022-09-09T10:02:24;8.02;;;1.27;;
34489;SDS011;20730;49.372;7.324;2022-09-09T10:05:08;2.97;;;0.70;;
34489;SDS011;20730;49.372;7.324;2022-09-09T10:08:28;4.72;;;1.25;;
34489;SDS011;20730;49.372;7.324;2022-09-09T10:19:00;7.80;;;3.60;;
34489;SDS011;20730;49.372;7.324;2022-09-09T10:27:05;8.40;;;4.30;;
34489;SDS011;20730;49.372;7.324;2022-09-09T10:32:32;9.23;;;3.77;;
34489;SDS011;20730;49.372;7.324;2022-09-09T10:35:03;8.23;;;4.18;;
34489;SDS011;20730;49.372;7.324;2022-09-09T10:37:59;4.50;;;1.00;;
34489;SDS011;20730;49.372;7.324;2022-09-09T10:40:39;6.13;;;1.08;;
34489;SDS011;20730;49.372;7.324;2022-09-09T10:46:23;3.00;;;0.85;;
34489;SDS011;20730;49.372;7.324;2022-09-09T10:57:46;4.47;;;0.73;;
34489;SDS011;20730;49.372;7.324;2022-09-09T11:00:19;3.15;;;0.77;;
34489;SDS011;20730;49.372;7.324;2022-09-09T11:02:52;7.47;;;1.48;;
34489;SDS011;20730;49.372;7.324;2022-09-09T11:08:19;6.03;;;0.95;;
34489;SDS011;20730;49.372;7.324;2022-09-09T11:13:42;4.10;;;0.93;;
34489;SDS011;20730;49.372;7.324;2022-09-09T11:16:39;4.53;;;1.23;;
34489;SDS011;20730;49.372;7.324;2022-09-09T11:21:42;5.03;;;0.93;;
34489;SDS011;20730;49.372;7.324;2022-09-09T11:24:13;5.90;;;1.20;;
34489;SDS011;20730;49.372;7.324;2022-09-09T11:27:31;4.22;;;1.00;;
34489;SDS011;20730;49.372;7.324;2022-09-09T11:29:52;4.03;;;0.90;;
34489;SDS011;20730;49.372;7.324;2022-09-09T11:33:07;4.53;;;1.00;;
34489;SDS011;20730;49.372;7.324;2022-09-09T11:38:47;2.38;;;0.90;;
34489;SDS011;20730;49.372;7.324;2022-09-09T11:41:18;5.45;;;0.85;;
34489;SDS011;20730;49.372;7.324;2022-09-09T11:43:48;4.10;;;0.98;;
34489;SDS011;20730;49.372;7.324;2022-09-09T11:46:19;3.88;;;0.70;;
34489;SDS011;20730;49.372;7.324;2022-09-09T11:49:00;3.83;;;0.70;;
34489;SDS011;20730;49.372;7.324;2022-09-09T11:51:29;6.15;;;0.90;;
34489;SDS011;20730;49.372;7.324;2022-09-09T11:53:58;3.22;;;0.70;;
34489;SDS011;20730;49.372;7.324;2022-09-09T11:57:01;1.70;;;0.60;;
34489;SDS011;20730;49.372;7.324;2022-09-09T11:59:21;5.85;;;0.80;;
34489;SDS011;20730;49.372;7.324;2022-09-09T12:09:53;3.55;;;0.90;;
34489;SDS011;20730;49.372;7.324;2022-09-09T12:12:25;8.18;;;1.00;;
34489;SDS011;20730;49.372;7.324;2022-09-09T12:17:26;5.63;;;1.08;;
34489;SDS011;20730;49.372;7.324;2022-09-09T12:20:03;6.70;;;0.93;;
34489;SDS011;20730;49.372;7.324;2022-09-09T12:28:03;6.53;;;0.95;;
34489;SDS011;20730;49.372;7.324;2022-09-09T12:33:39;6.30;;;0.80;;
34489;SDS011;20730;49.372;7.324;2022-09-09T12:36:11;3.15;;;0.88;;
34489;SDS011;20730;49.372;7.324;2022-09-09T12:38:48;2.17;;;0.85;;
34489;SDS011;20730;49.372;7.324;2022-09-09T12:41:24;1.48;;;0.73;;
34489;SDS011;20730;49.372;7.324;2022-09-09T12:44:03;2.17;;;0.70;;
34489;SDS011;20730;49.372;7.324;2022-09-09T12:46:36;5.15;;;1.02;;
34489;SDS011;20730;49.372;7.324;2022-09-09T12:49:21;1.67;;;0.65;;
34489;SDS011;20730;49.372;7.324;2022-09-09T12:51:53;5.20;;;0.70;;
34489;SDS011;20730;49.372;7.324;2022-09-09T12:54:20;3.22;;;0.80;;
34489;SDS011;20730;49.372;7.324;2022-09-09T12:56:47;4.13;;;0.90;;
34489;SDS011;20730;49.372;7.324;2022-09-09T12:59:24;2.60;;;0.70;;
34489;SDS011;20730;49.372;7.324;2022-09-09T13:01:56;2.67;;;1.10;;
34489;SDS011;20730;49.372;7.324;2022-09-09T13:04:25;2.85;;;0.75;;
34489;SDS011;20730;49.372;7.324;2022-09-09T13:06:52;3.95;;;0.73;;
34489;SDS011;20730;49.372;7.324;2022-09-09T13:09:19;6.80;;;1.00;;
34489;SDS011;20730;49.372;7.324;2022-09-09T13:11:50;3.13;;;0.77;;
34489;SDS011;20730;49.372;7.324;2022-09-09T13:14:25;3.15;;;0.93;;
34489;SDS011;20730;49.372;7.324;2022-09-09T13:16:59;2.35;;;0.77;;
34489;SDS011;20730;49.372;7.324;2022-09-09T13:19:29;3.10;;;0.80;;
34489;SDS011;20730;49.372;7.324;2022-09-09T13:21:58;2.72;;;0.65;;
34489;SDS011;20730;49.372;7.324;2022-09-09T13:24:30;3.42;;;0.90;;
34489;SDS011;20730;49.372;7.324;2022-09-09T13:26:59;3.45;;;0.82;;
34489;SDS011;20730;49.372;7.324;2022-09-09T13:29:30;2.83;;;0.70;;
34489;SDS011;20730;49.372;7.324;2022-09-09T13:32:04;5.88;;;0.98;;
34489;SDS011;20730;49.372;7.324;2022-09-09T13:34:33;3.95;;;0.80;;
34489;SDS011;20730;49.372;7.324;2022-09-09T13:37:14;1.98;;;0.70;;
34489;SDS011;20730;49.372;7.324;2022-09-09T13:39:52;6.75;;;0.98;;
34489;SDS011;20730;49.372;7.324;2022-09-09T13:42:26;4.18;;;0.93;;
34489;SDS011;20730;49.372;7.324;2022-09-09T13:44:55;5.28;;;0.90;;
34489;SDS011;20730;49.372;7.324;2022-09-09T13:47:26;1.65;;;0.80;;
34489;SDS011;20730;49.372;7.324;2022-09-09T13:49:54;2.75;;;0.88;;
34489;SDS011;20730;49.372;7.324;2022-09-09T13:52:21;3.53;;;0.93;;
34489;SDS011;20730;49.372;7.324;2022-09-09T13:54:49;1.63;;;0.60;;
34489;SDS011;20730;49.372;7.324;2022-09-09T13:57:23;1.63;;;0.70;;
34489;SDS011;20730;49.372;7.324;2022-09-09T13:59:52;2.95;;;0.75;;
34489;SDS011;20730;49.372;7.324;2022-09-09T14:02:36;2.35;;;0.60;;
34489;SDS011;20730;49.372;7.324;2022-09-09T14:05:05;2.92;;;0.40;;
34489;SDS011;20730;49.372;7.324;2022-09-09T14:07:32;0.55;;;0.30;;
34489;SDS011;20730;49.372;7.324;2022-09-09T14:09:59;1.17;;;0.47;;
34489;SDS011;20730;49.372;7.324;2022-09-09T14:12:26;0.85;;;0.30;;
34489;SDS011;20730;49.372;7.324;2022-09-09T14:14:53;1.52;;;0.52;;
34489;SDS011;20730;49.372;7.324;2022-09-09T14:17:20;1.38;;;0.40;;
34489;SDS011;20730;49.372;7.324;2022-09-09T14:19:48;2.00;;;0.60;;
34489;SDS011;20730;49.372;7.324;2022-09-09T14:22:15;2.63;;;0.45;;
34489;SDS011;20730;49.372;7.324;2022-09-09T14:24:42;1.77;;;0.40;;
34489;SDS011;20730;49.372;7.324;2022-09-09T14:27:09;2.90;;;0.52;;
34489;SDS011;20730;49.372;7.324;2022-09-09T14:29:35;1.10;;;0.70;;
34489;SDS011;20730;49.372;7.324;2022-09-09T14:32:02;1.35;;;0.45;;
34489;SDS011;20730;49.372;7.324;2022-09-09T14:34:29;1.85;;;0.68;;
34489;SDS011;20730;49.372;7.324;2022-09-09T14:36:58;2.33;;;0.60;;
34489;SDS011;20730;49.372;7.324;2022-09-09T14:39:25;0.70;;;0.60;;
34489;SDS011;20730;49.372;7.324;2022-09-09T14:41:52;2.38;;;0.70;;
34489;SDS011;20730;49.372;7.324;2022-09-09T14:44:19;2.65;;;0.95;;
34489;SDS011;20730;49.372;7.324;2022-09-09T14:46:46;1.83;;;0.57;;
34489;SDS011;20730;49.372;7.324;2022-09-09T14:49:12;2.47;;;0.50;;
34489;SDS011;20730;49.372;7.324;2022-09-09T14:51:39;3.55;;;0.65;;
34489;SDS011;20730;49.372;7.324;2022-09-09T14:54:06;3.05;;;0.50;;
34489;SDS011;20730;49.372;7.324;2022-09-09T14:56:32;2.13;;;0.43;;
34489;SDS011;20730;49.372;7.324;2022-09-09T14:59:04;1.42;;;0.40;;
34489;SDS011;20730;49.372;7.324;2022-09-09T15:01:31;2.30;;;0.60;;
34489;SDS011;20730;49.372;7.324;2022-09-09T15:03:59;3.30;;;0.60;;
34489;SDS011;20730;49.372;7.324;2022-09-09T15:06:27;1.17;;;0.50;;
34489;SDS011;20730;49.372;7.324;2022-09-09T15:08:56;1.33;;;0.60;;
34489;SDS011;20730;49.372;7.324;2022-09-09T15:11:30;4.45;;;0.60;;
34489;SDS011;20730;49.372;7.324;2022-09-09T15:14:00;3.00;;;0.45;;
34489;SDS011;20730;49.372;7.324;2022-09-09T15:16:27;2.15;;;0.70;;
34489;SDS011;20730;49.372;7.324;2022-09-09T15:18:55;1.85;;;0.60;;
34489;SDS011;20730;49.372;7.324;2022-09-09T15:21:24;3.05;;;0.63;;
34489;SDS011;20730;49.372;7.324;2022-09-09T15:23:52;1.60;;;0.68;;
34489;SDS011;20730;49.372;7.324;2022-09-09T15:26:19;3.17;;;0.50;;
34489;SDS011;20730;49.372;7.324;2022-09-09T15:28:47;3.30;;;0.95;;
34489;SDS011;20730;49.372;7.324;2022-09-09T15:31:15;2.42;;;0.60;;
34489;SDS011;20730;49.372;7.324;2022-09-09T15:33:53;0.22;;;0.20;;
34489;SDS011;20730;49.372;7.324;2022-09-09T15:36:28;0.20;;;0.15;;
34489;SDS011;20730;49.372;7.324;2022-09-09T15:38:58;1.48;;;0.17;;
34489;SDS011;20730;49.372;7.324;2022-09-09T15:41:26;0.80;;;0.30;;
34489;SDS011;20730;49.372;7.324;2022-09-09T15:43:54;1.42;;;0.30;;
34489;SDS011;20730;49.372;7.324;2022-09-09T15:48:57;0.73;;;0.20;;
34489;SDS011;20730;49.372;7.324;2022-09-09T15:51:25;4.60;;;0.55;;
34489;SDS011;20730;49.372;7.324;2022-09-09T15:54:10;3.58;;;0.82;;
34489;SDS011;20730;49.372;7.324;2022-09-09T15:56:39;1.95;;;0.60;;
34489;SDS011;20730;49.372;7.324;2022-09-09T15:59:06;5.57;;;0.68;;
34489;SDS011;20730;49.372;7.324;2022-09-09T16:01:33;1.15;;;0.70;;
34489;SDS011;20730;49.372;7.324;2022-09-09T16:04:01;2.90;;;0.70;;
34489;SDS011;20730;49.372;7.324;2022-09-09T16:06:28;3.25;;;0.60;;
34489;SDS011;20730;49.372;7.324;2022-09-09T16:08:56;2.22;;;0.50;;
34489;SDS011;20730;49.372;7.324;2022-09-09T16:11:29;0.47;;;0.43;;
34489;SDS011;20730;49.372;7.324;2022-09-09T16:13:58;1.45;;;0.73;;
34489;SDS011;20730;49.372;7.324;2022-09-09T16:16:27;1.95;;;0.60;;
34489;SDS011;20730;49.372;7.324;2022-09-09T16:18:56;2.40;;;0.50;;
34489;SDS011;20730;49.372;7.324;2022-09-09T16:21:25;2.45;;;0.60;;
34489;SDS011;20730;49.372;7.324;2022-09-09T16:23:58;1.65;;;0.50;;
34489;SDS011;20730;49.372;7.324;2022-09-09T16:26:27;2.25;;;0.60;;
34489;SDS011;20730;49.372;7.324;2022-09-09T16:28:57;4.65;;;0.73;;
34489;SDS011;20730;49.372;7.324;2022-09-09T16:31:27;8.60;;;2.22;;
34489;SDS011;20730;49.372;7.324;2022-09-09T16:33:55;4.00;;;0.70;;
34489;SDS011;20730;49.372;7.324;2022-09-09T16:36:23;3.55;;;1.38;;
34489;SDS011;20730;49.372;7.324;2022-09-09T16:38:55;4.43;;;0.70;;
34489;SDS011;20730;49.372;7.324;2022-09-09T16:41:24;0.50;;;0.50;;
34489;SDS011;20730;49.372;7.324;2022-09-09T16:43:55;3.75;;;0.77;;
34489;SDS011;20730;49.372;7.324;2022-09-09T16:46:26;2.65;;;0.77;;
34489;SDS011;20730;49.372;7.324;2022-09-09T16:48:58;1.63;;;0.50;;
34489;SDS011;20730;49.372;7.324;2022-09-09T16:51:29;1.80;;;0.40;;
34489;SDS011;20730;49.372;7.324;2022-09-09T16:53:58;3.08;;;0.70;;
34489;SDS011;20730;49.372;7.324;2022-09-09T16:56:27;2.63;;;0.55;;
34489;SDS011;20730;49.372;7.324;2022-09-09T16:58:55;1.40;;;0.40;;
34489;SDS011;20730;49.372;7.324;2022-09-09T17:01:23;2.05;;;0.50;;
34489;SDS011;20730;49.372;7.324;2022-09-09T17:03:58;2.30;;;0.60;;
34489;SDS011;20730;49.372;7.324;2022-09-09T17:06:28;0.85;;;0.30;;
34489;SDS011;20730;49.372;7.324;2022-09-09T17:08:59;1.95;;;0.30;;
34489;SDS011;20730;49.372;7.324;2022-09-09T17:11:28;0.93;;;0.43;;
34489;SDS011;20730;49.372;7.324;2022-09-09T17:13:55;0.73;;;0.40;;
34489;SDS011;20730;49.372;7.324;2022-09-09T17:16:25;1.30;;;0.40;;
34489;SDS011;20730;49.372;7.324;2022-09-09T17:18:56;1.73;;;0.40;;
34489;SDS011;20730;49.372;7.324;2022-09-09T17:21:25;1.35;;;0.50;;
34489;SDS011;20730;49.372;7.324;2022-09-09T17:23:53;1.50;;;0.40;;
34489;SDS011;20730;49.372;7.324;2022-09-09T17:26:21;0.90;;;0.35;;
34489;SDS011;20730;49.372;7.324;2022-09-09T17:28:49;1.40;;;0.43;;
34489;SDS011;20730;49.372;7.324;2022-09-09T17:31:16;0.93;;;0.50;;
34489;SDS011;20730;49.372;7.324;2022-09-09T17:33:45;4.65;;;0.50;;